Aviation Digital Data Service (ADDS)

Output produced by METARs form (1109 UTC 26 July 2014)
found at http://aviationweather.gov/adds/metars/
 
KSAN 260831Z 2609/2712 VRB04KT P6SM BKN012 
     FM261600 VRB04KT P6SM SCT150 
     FM261900 24008KT P6SM SCT150 
     FM270200 VRB05KT P6SM SCT150 
     FM270700 VRB05KT P6SM BKN012